Strona główna
METAR-TAF:

METAR-TAF

Lotnisko :

Port lotniczy Irkuck

Irkuck, Rosja

Szerokość geograficzna: 52-16N, Długość geograficzna: 104-19E, wysokość: 513 m

Aktualna obserwacja pogody

Raport powstał 10 minut temu, godzina 12:00 UTC
Wiatr 4 kt od zachód
Temperatura 18°C
Wilgotność 59%
Ciśnienie 1015 hPa
Widzialność 10 km lub więcej
Brak chmur poniżej 1500 m i brak chmur cumulonimbus

METAR: UIII 161200Z 26002MPS CAVOK 18/10 Q1015 R30/CLRD60 NOSIG RMK QFE716/0955

czas: 20:10 (12:10 UTC)

Prognoza

Raport powstał 1 godzina i 10 minut temu, godzina 11:00 UTC
Prognoza ważna od 16 godzina 12 UTC do 17 godzina 12 UTC
Wiatr 6 kt od zachodnio-północny zachód
Widzialność 10 km lub więcej
Rozproszone chmury na wysokości 2000 ft, Cumulonimbus.
Przejściowo
od 16 godzina 18 UTC do 17 godzina 03 UTC
Widzialność: 0300 m
na wysokości 100 ft
mgła
Stopniowe zmiany
od 17 godzina 03 UTC do 17 godzina 05 UTC

TAF: UIII 161100Z 1612/1712 30003MPS 9999 SCT020CB TEMPO 1618/1703 0300 FG VV001 BECMG 1703/1705 NSC

Obserwacja i prognoza pogody dla ponad 4000 lotnisk (raport METAR i TAF).

Dostępne stacje oznaczono żółtymi i czerwonymi punktami na mapie.

Najedź kursorem aby zobaczyć nazwę stacji.

Kliknij aby zobaczyć obserwacje i prognozy pogody.

Aby zmienić mapę: kliknij na zielony przycisk z czarnym krzyżykiem, aby powiększyć; na zielony przycisk z myślnikiem, aby pomniejszyć; na zielone strzałki, aby przejść do map sąsiednich.


METAR-TAF: